• Join FlightAware (Why Join?)
  • Login
  • US Flag 
04:05PM EST


 

Airport Tracker/Info


-or-


 

Live Flight TrackerFlight Track Log ✈ JTA62 ✈ 22-Apr-2013 ✈ ROAH / OKA - RJFF / FUK

Flight Track Log - Related Links

Times and Time Zones

All times are in EDT time to prevent confusion due to time zone crossing. See the JTA62 flight status page for this flight to view local times or setup timezone preferences in your user account.

Time Position Orientation Groundspeed Altitude Reporting Facility
EDT Latitude Longitude Course Direction KTS MPH feet Rate Location/Type
07:09AM 26.5761 127.7802 18° North  Level Estimated
07:10AM 26.6712 127.8139 18° North  Level Estimated
07:11AM 26.7662 127.8476 18° North  Level Estimated
07:12AM 26.8613 127.8815 18° North  Level Estimated
07:13AM 26.9563 127.9154 18° North  Level Estimated
07:14AM 27.0513 127.9493 18° North  Level Estimated
07:15AM 27.1464 127.9833 18° North  Level Estimated
07:16AM 27.2414 128.0173 18° North  Level Estimated
07:17AM 27.3364 128.0515 18° North  Level Estimated
07:18AM 27.4314 128.0856 18° North  Level Estimated
07:19AM 27.5263 128.1198 18° North  Level Estimated
07:20AM 27.6213 128.1541 18° North  Level Estimated
07:21AM 27.7117 128.1868 18° North  Level Estimated
07:22AM 27.8020 128.2195 18° North  Level Estimated
07:23AM 27.8923 128.2523 18° North  Level Estimated
07:24AM 27.9826 128.2852 18° North  Level Estimated
07:25AM 28.0729 128.3181 18° North  Level Estimated
07:26AM 28.1643 128.3514 18° North  Level Estimated
07:27AM 28.2557 128.3848 18° North  Level Estimated
07:28AM 28.3471 128.4183 18° North  Level Estimated
07:29AM 28.4385 128.4518 18° North  Level Estimated
07:30AM 28.5299 128.4854 18° North  Level Estimated
07:31AM 28.6213 128.5190 18° North  Level Estimated
07:32AM 28.7126 128.5527 18° North  Level Estimated
07:33AM 28.8040 128.5865 18° North  Level Estimated
07:34AM 28.8953 128.6203 18° North  Level Estimated
07:35AM 28.9866 128.6542 18° North  Level Estimated
07:36AM 29.0780 128.6881 18° North  Level Estimated
07:37AM 29.1693 128.7221 18° North  Level Estimated
07:38AM 29.2606 128.7562 18° North  Level Estimated
07:39AM 29.3519 128.7903 18° North  Level Estimated
07:40AM 29.4432 128.8245 18° North  Level Estimated
07:41AM 29.5345 128.8587 18° North  Level Estimated
07:42AM 29.6257 128.8930 18° North  Level Estimated
07:43AM 29.7170 128.9274 18° North  Level Estimated
07:44AM 29.8083 128.9618 18° North  Level Estimated
07:45AM 29.8995 128.9963 18° North  Level Estimated
07:46AM 29.9908 129.0309 18° North  Level Estimated
07:47AM 30.0820 129.0655 18° North  Level Estimated
07:48AM 30.1732 129.1002 18° North  Level Estimated
07:49AM 30.2644 129.1349 18° North  Level Estimated
07:50AM 30.3556 129.1697 18° North  Level Estimated
07:51AM 30.4468 129.2046 18° North  Level Estimated
07:52AM 30.5380 129.2395 18° North  Level Estimated
07:53AM 30.6292 129.2746 18° North  Level Estimated
07:54AM 30.7204 129.3096 18° North  Level Estimated
07:55AM 30.8115 129.3448 18° North  Level Estimated
07:56AM 30.9027 129.3800 18° North  Level Estimated
07:57AM 30.9938 129.4152 18° North  Level Estimated
07:58AM 31.0849 129.4506 18° North  Level Estimated
07:59AM 31.1761 129.4860 18° North  Level Estimated
08:00AM 31.2672 129.5215 18° North  Level Estimated
08:01AM 31.3583 129.5570 18° North  Level Estimated
08:02AM 31.4494 129.5926 18° North  Level Estimated
08:03AM 31.5404 129.6283 18° North  Level Estimated
08:04AM 31.6315 129.6640 18° North  Level Estimated
08:05AM 31.7226 129.6999 19° North  Level Estimated
08:06AM 31.8136 129.7358 19° North  Level Estimated
08:07AM 31.9047 129.7717 19° North  Level Estimated
08:08AM 31.9957 129.8078 19° North  Level Estimated
08:09AM 32.0867 129.8439 19° North  Level Estimated
08:10AM 32.1777 129.8801 19° North  Level Estimated
08:11AM 32.2687 129.9163 19° North  Level Estimated
08:12AM 32.3597 129.9526 19° North  Level Estimated
08:13AM 32.4507 129.9890 19° North  Level Estimated
08:14AM 32.5417 130.0255 19° North  Level Estimated
08:15AM 32.6326 130.0621 19° North  Level Estimated
08:16AM 32.7236 130.0987 19° North  Level Estimated
08:17AM 32.8145 130.1354 19° North  Level Estimated
08:18AM 32.9054 130.1721 19° North  Level Estimated
08:19AM 32.9963 130.2090 19° North  Level Estimated
08:20AM 33.0872 130.2459 19° North  Level Estimated
08:21AM 33.1781 130.2829 19° North  Level Estimated
08:22AM 33.2690 130.3200 19° North  Level Estimated
08:23AM 33.3599 130.3571 19° North  Level Estimated
08:24AM 33.4507 130.3944 19° North  Level Estimated
08:25AM 33.5476 130.4341 19° North  Level Estimated
08:26AM 33.5866 130.4502 19° North  Level Estimated
08:27AM 33.5866 130.4502 248° West  Level Estimated
08:28AM 33.5866 130.4502 248° West  Level Estimated
08:29AM 33.5866 130.4502 248° West  Level Estimated
08:30AM 33.5866 130.4502 248° West  Level Estimated
08:31AM 33.5866 130.4502 248° West  Level Estimated